Time;durP1;ratioP1;P1;durP2;ratioP2;P2;SDS_P1;SDS_P2;PMS_P1;PMS_P2;Temp;Humidity;BMP_temperature;BMP_pressure;BME280_temperature;BME280_humidity;BME280_pressure;Samples;Min_cycle;Max_cycle;Signal;HPM_P1;HPM_P2
2023/10/06 00:01:03;;;;;;;8.07;3.60;;;;;;;7.05;100.00;98360.06;5031322;28;20068;-61
2023/10/06 00:03:29;;;;;;;9.07;3.72;;;;;;;6.86;100.00;98357.94;5035173;28;20111;-62
2023/10/06 00:05:56;;;;;;;8.90;4.15;;;;;;;6.83;100.00;98376.38;5039265;28;20654;-62
2023/10/06 00:08:31;;;;;;;9.32;3.80;;;;;;;6.85;100.00;98372.47;5042836;28;20127;-62
2023/10/06 00:11:10;;;;;;;8.13;3.90;;;;;;;6.91;100.00;98368.13;5035281;28;20041;-62
2023/10/06 00:13:38;;;;;;;7.40;3.38;;;;;;;6.94;100.00;98367.72;5043220;28;20071;-62
2023/10/06 00:16:07;;;;;;;9.82;4.05;;;;;;;6.91;100.00;98368.13;5037348;28;20069;-62
2023/10/06 00:18:36;;;;;;;7.25;3.50;;;;;;;6.78;100.00;98363.53;5033587;28;20067;-62
2023/10/06 00:21:14;;;;;;;8.73;3.45;;;;;;;6.61;100.00;98363.06;5034788;28;20068;-62
2023/10/06 00:23:44;;;;;;;8.57;3.88;;;;;;;6.42;100.00;98372.72;5041875;28;20522;-61
2023/10/06 00:26:12;;;;;;;7.93;4.15;;;;;;;6.32;100.00;98381.16;5039793;28;20041;-61
2023/10/06 00:28:44;;;;;;;10.77;3.95;;;;;;;6.28;100.00;98385.25;5039953;28;20627;-62
2023/10/06 00:31:12;;;;;;;10.85;4.60;;;;;;;6.22;100.00;98393.09;5030946;28;20490;-62
2023/10/06 00:33:43;;;;;;;11.23;4.35;;;;;;;6.31;100.00;98392.94;5039476;28;20052;-62
2023/10/06 00:36:16;;;;;;;12.95;4.97;;;;;;;6.30;100.00;98380.53;5038434;28;20124;-61
2023/10/06 00:38:50;;;;;;;8.77;4.35;;;;;;;6.27;100.00;98392.53;5031670;28;20045;-61
2023/10/06 00:41:20;;;;;;;10.43;4.47;;;;;;;6.19;100.00;98390.81;5034025;28;20087;-61
2023/10/06 00:43:49;;;;;;;7.78;4.35;;;;;;;6.18;100.00;98393.69;5038579;28;20044;-62
2023/10/06 00:46:20;;;;;;;11.75;4.20;;;;;;;6.11;100.00;98388.28;5040235;28;20047;-61
2023/10/06 00:48:56;;;;;;;11.60;4.72;;;;;;;6.02;100.00;98384.06;5032471;28;20041;-61
2023/10/06 00:51:25;;;;;;;9.55;5.03;;;;;;;5.94;100.00;98385.06;5033879;28;20056;-62
2023/10/06 00:53:56;;;;;;;11.93;4.75;;;;;;;5.85;100.00;98384.34;5042892;28;20463;-62
2023/10/06 00:56:23;;;;;;;10.53;4.83;;;;;;;5.85;100.00;98381.66;5034528;28;20033;-62
2023/10/06 00:58:51;;;;;;;9.27;4.10;;;;;;;5.90;100.00;98368.47;5037464;28;20512;-62
2023/10/06 01:01:19;;;;;;;13.07;5.45;;;;;;;5.98;100.00;98379.06;5029882;28;20072;-62
2023/10/06 01:06:35;;;;;;;14.68;5.05;;;;;;;6.02;100.00;98395.66;5030032;28;20051;-61
2023/10/06 01:09:15;;;;;;;13.55;4.93;;;;;;;6.01;100.00;98387.78;5036269;28;20137;-62
2023/10/06 01:11:43;;;;;;;8.88;3.78;;;;;;;5.96;100.00;98383.81;5028209;28;20714;-62
2023/10/06 01:14:09;;;;;;;9.23;4.40;;;;;;;5.96;100.00;98382.97;5035386;28;20056;-61
2023/10/06 01:16:36;;;;;;;10.02;4.40;;;;;;;5.99;100.00;98377.22;5040471;28;20037;-62
2023/10/06 01:19:14;;;;;;;10.60;4.90;;;;;;;5.94;100.00;98372.41;5023567;28;20042;-62
2023/10/06 01:21:53;;;;;;;9.95;4.40;;;;;;;5.86;100.00;98372.56;5035544;28;20040;-61
2023/10/06 01:24:28;;;;;;;7.25;3.75;;;;;;;5.86;100.00;98376.09;5043254;28;20600;-61
2023/10/06 01:26:59;;;;;;;11.52;4.25;;;;;;;5.86;100.00;98380.63;5032125;28;20045;-62
2023/10/06 01:29:30;;;;;;;10.68;4.20;;;;;;;5.73;100.00;98371.47;5036140;28;20078;-62
2023/10/06 01:31:58;;;;;;;9.52;5.30;;;;;;;5.65;100.00;98362.72;5027689;28;20042;-62
2023/10/06 01:34:25;;;;;;;11.27;4.35;;;;;;;5.60;100.00;98372.19;5038695;28;20036;-61
2023/10/06 01:36:54;;;;;;;11.40;4.60;;;;;;;5.63;100.00;98362.09;5028061;28;20147;-61
2023/10/06 01:39:25;;;;;;;11.05;4.22;;;;;;;5.56;100.00;98365.56;5029791;28;20112;-62
2023/10/06 01:41:52;;;;;;;10.40;4.47;;;;;;;5.57;100.00;98369.91;5038985;28;20049;-61
2023/10/06 01:44:19;;;;;;;9.57;4.55;;;;;;;5.66;100.00;98380.50;5037402;28;20672;-61
2023/10/06 01:46:53;;;;;;;11.10;4.72;;;;;;;5.72;100.00;98374.38;5030022;28;20453;-61
2023/10/06 01:49:23;;;;;;;10.55;4.68;;;;;;;5.83;100.00;98362.25;5037015;28;20413;-62
2023/10/06 01:51:51;;;;;;;12.85;4.90;;;;;;;5.90;100.00;98370.34;5034610;28;20042;-62
2023/10/06 01:54:36;;;;;;;11.55;4.82;;;;;;;6.07;100.00;98373.56;5032168;28;20041;-62
2023/10/06 01:57:11;;;;;;;10.48;4.78;;;;;;;6.23;100.00;98354.41;5033838;28;20053;-62
2023/10/06 01:59:37;;;;;;;9.95;4.50;;;;;;;6.26;100.00;98338.94;5030008;28;20041;-62
2023/10/06 02:02:07;;;;;;;9.65;4.38;;;;;;;6.18;100.00;98335.38;5028750;28;20041;-62
2023/10/06 02:04:39;;;;;;;10.85;4.38;;;;;;;6.06;100.00;98339.66;5034234;28;20773;-62
2023/10/06 02:07:10;;;;;;;14.00;4.85;;;;;;;5.92;100.00;98341.38;5037706;28;20610;-62
2023/10/06 02:09:37;;;;;;;11.25;3.97;;;;;;;5.84;100.00;98339.69;5039265;28;20041;-62
2023/10/06 02:12:04;;;;;;;10.68;4.32;;;;;;;5.83;100.00;98344.22;5030907;28;20056;-62
2023/10/06 02:14:31;;;;;;;13.40;4.80;;;;;;;5.77;100.00;98339.66;5035643;28;20045;-62
2023/10/06 02:17:04;;;;;;;11.27;4.10;;;;;;;5.64;100.00;98339.56;5030566;28;20037;-62
2023/10/06 02:19:32;;;;;;;10.73;3.90;;;;;;;5.55;100.00;98339.72;5025536;28;20071;-62
2023/10/06 02:22:00;;;;;;;9.88;4.70;;;;;;;5.52;100.00;98334.72;5036757;28;20427;-62
2023/10/06 02:24:26;;;;;;;9.27;4.07;;;;;;;5.52;100.00;98332.03;5030653;28;20041;-61
2023/10/06 02:27:02;;;;;;;12.85;4.80;;;;;;;5.48;100.00;98325.41;5031330;28;20041;-62
2023/10/06 02:29:29;;;;;;;10.43;4.53;;;;;;;5.40;100.00;98329.06;5040216;28;20657;-62
2023/10/06 02:32:06;;;;;;;11.85;4.38;;;;;;;5.33;100.00;98323.66;5023866;28;20068;-62
2023/10/06 02:34:38;;;;;;;10.27;4.00;;;;;;;5.28;100.00;98334.16;5031897;28;20052;-62
2023/10/06 02:37:07;;;;;;;9.88;3.67;;;;;;;5.17;100.00;98338.16;5025836;28;20780;-62
2023/10/06 02:39:34;;;;;;;10.45;4.32;;;;;;;5.12;100.00;98331.72;5028976;28;20041;-62
2023/10/06 02:42:07;;;;;;;7.95;3.92;;;;;;;5.08;100.00;98332.09;5044081;28;20037;-62
2023/10/06 02:44:38;;;;;;;7.88;3.50;;;;;;;5.06;100.00;98334.13;5033106;28;20140;-62
2023/10/06 02:47:09;;;;;;;9.57;4.47;;;;;;;5.01;100.00;98333.88;5025474;28;20049;-62
2023/10/06 02:49:37;;;;;;;8.93;5.15;;;;;;;5.02;100.00;98340.91;5024552;28;20581;-62
2023/10/06 02:52:15;;;;;;;9.70;4.32;;;;;;;5.00;100.00;98326.88;5030663;28;20041;-62
2023/10/06 02:54:49;;;;;;;13.52;4.30;;;;;;;5.00;100.00;98328.72;5024841;28;20041;-62
2023/10/06 02:57:20;;;;;;;9.77;4.03;;;;;;;4.99;100.00;98337.78;5034648;28;20091;-62
2023/10/06 02:59:48;;;;;;;9.90;4.60;;;;;;;4.94;100.00;98333.03;5030308;28;20075;-61
2023/10/06 03:02:18;;;;;;;11.77;4.05;;;;;;;5.01;100.00;98343.81;5024576;28;20041;-61
2023/10/06 03:04:49;;;;;;;9.60;3.70;;;;;;;4.92;100.00;98327.00;5031362;28;20049;-61
2023/10/06 03:07:18;;;;;;;8.85;4.43;;;;;;;4.82;100.00;98328.16;5028477;28;20435;-62
2023/10/06 03:09:47;;;;;;;13.10;4.35;;;;;;;4.84;100.00;98330.66;5029918;28;20152;-62
2023/10/06 03:14:42;;;;;;;10.63;4.22;;;;;;;4.77;100.00;98324.38;5037877;28;20040;-61
2023/10/06 03:17:12;;;;;;;9.50;3.30;;;;;;;4.79;100.00;98320.47;5033294;28;20100;-61
2023/10/06 03:19:40;;;;;;;6.60;3.33;;;;;;;4.90;100.00;98312.94;5030606;28;20144;-61
2023/10/06 03:22:10;;;;;;;12.93;3.97;;;;;;;4.80;100.00;98305.22;5031192;28;20680;-61
2023/10/06 03:24:44;;;;;;;7.28;3.25;;;;;;;4.62;100.00;98316.38;5038023;28;20063;-62
2023/10/06 03:27:15;;;;;;;9.70;3.80;;;;;;;4.72;100.00;98316.88;5034227;28;20037;-62
2023/10/06 03:29:55;;;;;;;7.53;3.58;;;;;;;4.94;100.00;98317.72;5030869;28;20044;-61
2023/10/06 03:32:38;;;;;;;7.28;3.40;;;;;;;5.21;100.00;98299.16;5030773;28;20049;-61
2023/10/06 03:35:35;;;;;;;9.95;4.03;;;;;;;5.06;100.00;98293.88;5024597;28;20501;-62
2023/10/06 03:38:27;;;;;;;7.05;3.58;;;;;;;5.01;100.00;98299.00;5028133;28;20057;-61
2023/10/06 03:46:23;;;;;;;8.27;4.28;;;;;;;4.86;100.00;98300.94;5022711;28;20041;-61
2023/10/06 03:48:51;;;;;;;7.50;3.45;;;;;;;4.90;100.00;98305.72;5026982;28;20047;-61
2023/10/06 03:51:19;;;;;;;9.70;3.63;;;;;;;4.89;100.00;98301.38;5034161;28;20512;-61
2023/10/06 03:53:47;;;;;;;10.77;4.03;;;;;;;4.90;100.00;98303.03;5033540;28;20049;-61
2023/10/06 03:56:17;;;;;;;9.65;4.15;;;;;;;4.81;100.00;98304.19;5029052;28;20069;-61
2023/10/06 03:58:45;;;;;;;9.73;4.30;;;;;;;4.74;100.00;98312.16;5035299;28;20103;-61
2023/10/06 04:01:16;;;;;;;8.95;3.75;;;;;;;4.63;100.00;98313.50;5036266;28;20451;-61
2023/10/06 04:03:43;;;;;;;9.68;4.55;;;;;;;4.64;100.00;98317.03;5041134;28;20120;-61
2023/10/06 04:06:13;;;;;;;11.45;4.13;;;;;;;4.62;100.00;98316.38;5029932;28;20041;-61
2023/10/06 04:08:45;;;;;;;7.93;3.63;;;;;;;4.54;100.00;98304.72;5029185;28;20051;-61
2023/10/06 04:11:14;;;;;;;9.02;3.65;;;;;;;4.48;100.00;98316.22;5028261;28;20057;-62
2023/10/06 04:13:41;;;;;;;11.88;4.22;;;;;;;4.63;100.00;98318.03;5041983;28;20183;-61
2023/10/06 04:16:08;;;;;;;10.48;4.75;;;;;;;4.59;100.00;98308.69;5036353;28;20040;-61
2023/10/06 04:18:35;;;;;;;9.88;4.10;;;;;;;4.61;100.00;98299.44;5041005;28;20049;-61
2023/10/06 04:21:03;;;;;;;6.93;3.78;;;;;;;4.70;100.00;98297.47;5031912;28;20041;-61
2023/10/06 04:23:30;;;;;;;10.30;4.53;;;;;;;4.77;100.00;98295.69;5034117;28;20084;-61
2023/10/06 04:25:56;;;;;;;12.52;5.03;;;;;;;4.80;100.00;98287.25;5029888;28;20053;-61
2023/10/06 04:28:29;;;;;;;11.23;4.28;;;;;;;4.91;100.00;98285.91;5036184;28;20041;-62
2023/10/06 04:31:00;;;;;;;10.18;4.35;;;;;;;4.98;100.00;98277.09;5028278;28;20041;-62
2023/10/06 04:33:30;;;;;;;11.38;4.70;;;;;;;5.10;100.00;98274.69;5035849;28;20120;-61
2023/10/06 04:36:07;;;;;;;16.63;4.75;;;;;;;5.18;100.00;98277.25;5040553;28;20543;-62
2023/10/06 04:38:38;;;;;;;11.55;4.47;;;;;;;5.21;100.00;98266.94;5028195;28;20049;-61
2023/10/06 04:41:09;;;;;;;12.45;3.90;;;;;;;5.29;100.00;98265.97;5035874;28;20044;-63
2023/10/06 04:43:44;;;;;;;6.95;4.35;;;;;;;5.39;100.00;98272.84;5038723;28;20049;-62
2023/10/06 04:46:14;;;;;;;11.35;4.38;;;;;;;5.42;100.00;98269.78;5037130;28;20043;-63
2023/10/06 04:48:41;;;;;;;6.60;3.40;;;;;;;5.43;100.00;98258.00;5033625;28;20132;-62
2023/10/06 04:51:12;;;;;;;11.57;4.53;;;;;;;5.47;100.00;98261.97;5034451;28;20045;-63
2023/10/06 04:53:38;;;;;;;10.70;5.93;;;;;;;5.45;100.00;98272.06;5039083;28;20052;-63
2023/10/06 04:56:07;;;;;;;12.15;4.93;;;;;;;5.59;100.00;98273.81;5033558;28;20381;-63
2023/10/06 04:58:38;;;;;;;14.65;5.05;;;;;;;5.52;100.00;98258.66;5040310;28;20046;-63
2023/10/06 05:01:07;;;;;;;9.63;4.70;;;;;;;5.54;100.00;98262.00;5036411;28;20057;-63
2023/10/06 05:03:43;;;;;;;12.48;4.68;;;;;;;5.60;100.00;98255.81;5031393;28;20045;-62
2023/10/06 05:06:18;;;;;;;10.15;4.65;;;;;;;5.69;100.00;98256.50;5043130;28;20037;-63
2023/10/06 05:08:47;;;;;;;8.95;4.95;;;;;;;5.72;100.00;98258.81;5040860;28;20048;-62
2023/10/06 05:11:18;;;;;;;12.18;3.97;;;;;;;5.76;100.00;98254.69;5037724;28;20037;-62
2023/10/06 05:13:52;;;;;;;8.05;3.70;;;;;;;5.83;100.00;98254.72;5046163;28;20107;-62
2023/10/06 05:16:22;;;;;;;11.55;4.50;;;;;;;5.81;100.00;98260.31;5033001;28;20050;-62
2023/10/06 05:18:49;;;;;;;12.85;4.57;;;;;;;5.79;100.00;98262.34;5025180;28;20045;-62
2023/10/06 05:21:17;;;;;;;13.63;5.82;;;;;;;5.72;100.00;98275.75;5027438;28;20127;-62
2023/10/06 05:23:45;;;;;;;10.50;5.88;;;;;;;5.80;100.00;98279.31;5035982;28;20462;-62
2023/10/06 05:26:13;;;;;;;10.05;5.18;;;;;;;5.91;100.00;98284.13;5026888;28;20050;-62
2023/10/06 05:28:42;;;;;;;12.32;5.85;;;;;;;6.02;100.00;98287.28;5029263;28;20117;-62
2023/10/06 05:31:08;;;;;;;14.30;6.45;;;;;;;6.17;100.00;98287.16;5039932;28;20053;-63
2023/10/06 05:33:35;;;;;;;11.52;5.80;;;;;;;6.23;100.00;98289.88;5028776;28;20456;-62
2023/10/06 05:36:09;;;;;;;11.05;5.35;;;;;;;6.30;100.00;98281.81;5034561;28;20049;-62
2023/10/06 05:38:37;;;;;;;11.77;5.13;;;;;;;6.31;100.00;98286.19;5031548;28;20148;-62
2023/10/06 05:41:07;;;;;;;12.15;5.22;;;;;;;6.38;100.00;98289.72;5037714;28;20137;-63
2023/10/06 05:43:33;;;;;;;12.85;5.43;;;;;;;6.53;100.00;98294.13;5035612;28;20049;-62
2023/10/06 05:46:00;;;;;;;8.60;4.72;;;;;;;6.64;100.00;98300.78;5037117;28;20049;-62
2023/10/06 05:48:30;;;;;;;12.50;5.57;;;;;;;6.74;100.00;98290.44;5039070;28;20049;-62
2023/10/06 05:51:04;;;;;;;9.57;5.13;;;;;;;6.84;100.00;98290.03;5036283;28;20421;-63
2023/10/06 05:53:38;;;;;;;10.02;5.15;;;;;;;6.83;100.00;98288.38;5046491;28;20056;-62
2023/10/06 05:56:07;;;;;;;11.65;4.40;;;;;;;6.78;100.00;98282.78;5035064;28;20103;-62
2023/10/06 05:58:37;;;;;;;11.30;5.10;;;;;;;6.73;100.00;98286.09;5030504;28;20053;-62
2023/10/06 06:01:10;;;;;;;11.50;4.85;;;;;;;6.68;100.00;98287.72;5032193;28;20046;-62
2023/10/06 06:03:42;;;;;;;9.45;4.80;;;;;;;6.63;100.00;98289.16;5042431;28;20045;-62
2023/10/06 06:06:09;;;;;;;12.10;5.00;;;;;;;6.76;100.00;98283.00;5032161;28;20045;-63
2023/10/06 06:08:39;;;;;;;13.65;4.00;;;;;;;6.91;100.00;98287.34;5026967;28;20153;-62
2023/10/06 06:11:06;;;;;;;10.90;4.70;;;;;;;7.00;100.00;98285.28;5034038;28;20041;-63
2023/10/06 06:13:36;;;;;;;11.52;4.72;;;;;;;7.02;100.00;98291.31;5049607;28;20053;-63
2023/10/06 06:16:05;;;;;;;12.13;5.35;;;;;;;7.08;100.00;98286.97;5035997;28;20080;-62
2023/10/06 06:18:33;;;;;;;11.27;5.38;;;;;;;7.14;100.00;98294.19;5025909;28;20056;-62
2023/10/06 06:21:03;;;;;;;12.45;5.30;;;;;;;7.25;100.00;98298.97;5037398;28;20048;-62
2023/10/06 06:23:33;;;;;;;16.95;5.57;;;;;;;7.28;100.00;98300.41;5036594;28;20427;-62
2023/10/06 06:26:00;;;;;;;12.48;4.97;;;;;;;7.35;100.00;98295.88;5027410;28;20139;-63
2023/10/06 06:28:27;;;;;;;14.07;5.45;;;;;;;7.36;100.00;98300.22;5039048;28;20024;-62
2023/10/06 06:30:54;;;;;;;13.52;5.82;;;;;;;7.33;100.00;98299.81;5036421;28;20049;-62
2023/10/06 06:33:23;;;;;;;18.08;5.70;;;;;;;7.46;100.00;98301.66;5033823;28;20045;-62
2023/10/06 06:35:50;;;;;;;10.35;5.65;;;;;;;7.59;100.00;98307.03;5025981;28;20050;-62
2023/10/06 06:38:18;;;;;;;13.40;6.00;;;;;;;7.77;100.00;98302.84;5033668;28;20060;-63
2023/10/06 06:40:45;;;;;;;12.35;5.82;;;;;;;7.89;100.00;98295.75;5031170;28;20134;-62
2023/10/06 06:43:12;;;;;;;15.05;5.78;;;;;;;8.01;100.00;98301.34;5035749;28;20069;-62
2023/10/06 06:45:42;;;;;;;16.60;6.03;;;;;;;8.09;100.00;98304.84;5036768;28;20063;-63
2023/10/06 06:48:13;;;;;;;9.85;4.30;;;;;;;8.10;100.00;98303.81;5035281;28;20048;-63
2023/10/06 06:50:44;;;;;;;12.38;6.00;;;;;;;8.17;100.00;98307.31;5031709;28;20129;-63
2023/10/06 06:53:11;;;;;;;15.82;6.45;;;;;;;8.24;100.00;98310.81;5029945;28;20048;-62
2023/10/06 06:55:39;;;;;;;11.48;6.32;;;;;;;8.29;100.00;98302.91;5037160;28;20046;-62
2023/10/06 06:58:11;;;;;;;12.32;5.90;;;;;;;8.41;100.00;98300.34;5044961;28;20128;-62
2023/10/06 07:00:39;;;;;;;16.20;5.40;;;;;;;8.54;100.00;98301.34;5024973;28;20068;-62
2023/10/06 07:03:07;;;;;;;9.52;4.75;;;;;;;8.72;100.00;98300.63;5042553;28;20121;-62
2023/10/06 07:05:35;;;;;;;12.75;4.85;;;;;;;8.83;100.00;98299.13;5037823;28;20040;-62
2023/10/06 07:08:05;;;;;;;8.23;4.68;;;;;;;8.89;100.00;98300.13;5038132;28;20061;-62
2023/10/06 07:10:32;;;;;;;11.55;5.03;;;;;;;8.92;100.00;98297.81;5041135;28;20049;-62
2023/10/06 07:13:00;;;;;;;11.23;4.75;;;;;;;8.97;100.00;98289.91;5027776;28;20587;-62
2023/10/06 07:15:30;;;;;;;7.88;4.75;;;;;;;9.10;100.00;98288.13;5033019;28;20032;-62
2023/10/06 07:17:58;;;;;;;10.98;4.80;;;;;;;9.19;100.00;98291.38;5032495;28;20133;-62
2023/10/06 07:20:27;;;;;;;10.07;4.97;;;;;;;9.30;100.00;98295.25;5031924;28;20055;-62
2023/10/06 07:22:57;;;;;;;9.93;4.72;;;;;;;9.39;100.00;98298.50;5031839;28;20041;-62
2023/10/06 07:25:26;;;;;;;13.10;5.20;;;;;;;9.45;100.00;98297.63;5034444;28;20064;-62
2023/10/06 07:27:55;;;;;;;19.48;4.68;;;;;;;9.52;100.00;98297.56;5038424;28;20037;-62
2023/10/06 07:30:23;;;;;;;11.38;4.28;;;;;;;9.54;100.00;98304.38;5036790;28;20036;-62
2023/10/06 07:32:54;;;;;;;11.07;5.03;;;;;;;9.62;100.00;98304.09;5033457;28;20540;-62
2023/10/06 07:35:36;;;;;;;11.23;5.22;;;;;;;9.69;100.00;98308.63;5026554;28;20051;-62
2023/10/06 07:38:03;;;;;;;12.85;4.97;;;;;;;9.80;100.00;98302.47;5039935;28;20041;-62
2023/10/06 07:40:29;;;;;;;14.23;5.07;;;;;;;9.89;100.00;98300.31;5035414;28;20049;-62
2023/10/06 07:42:56;;;;;;;12.40;4.70;;;;;;;9.97;100.00;98297.31;5038544;28;20040;-62
2023/10/06 07:45:23;;;;;;;13.32;4.78;;;;;;;10.10;100.00;98298.22;5032600;28;20041;-62
2023/10/06 07:47:51;;;;;;;13.93;4.82;;;;;;;10.20;100.00;98298.50;5037952;28;20048;-62
2023/10/06 07:50:17;;;;;;;10.65;4.68;;;;;;;10.28;100.00;98300.06;5025847;28;20045;-62
2023/10/06 07:52:47;;;;;;;9.05;4.03;;;;;;;10.41;100.00;98304.50;5036244;28;20049;-62
2023/10/06 07:55:15;;;;;;;12.75;4.97;;;;;;;10.53;100.00;98299.16;5033701;28;20041;-62
2023/10/06 07:57:47;;;;;;;11.77;4.63;;;;;;;10.70;100.00;98303.94;5038692;28;20121;-63
2023/10/06 08:00:27;;;;;;;8.60;3.88;;;;;;;10.80;100.00;98301.53;5024733;28;20565;-62
2023/10/06 08:02:59;;;;;;;10.88;4.07;;;;;;;10.89;100.00;98296.59;5033585;28;20041;-62
2023/10/06 08:05:26;;;;;;;11.63;4.85;;;;;;;10.97;100.00;98298.97;5041006;28;20451;-62
2023/10/06 08:07:58;;;;;;;9.82;3.75;;;;;;;11.04;100.00;98294.28;5036550;28;20040;-62
2023/10/06 08:10:25;;;;;;;12.02;3.80;;;;;;;11.10;100.00;98300.66;5031724;28;22317;-62
2023/10/06 08:12:56;;;;;;;11.70;4.53;;;;;;;11.20;100.00;98281.09;5025363;28;20045;-62
2023/10/06 08:15:25;;;;;;;11.75;4.25;;;;;;;11.31;100.00;98290.31;5035502;28;20121;-63
2023/10/06 08:17:53;;;;;;;16.10;3.70;;;;;;;11.47;100.00;98290.69;5035899;28;20040;-62
2023/10/06 08:20:20;;;;;;;9.90;3.85;;;;;;;11.71;100.00;98297.75;5039849;28;20458;-63
2023/10/06 08:22:49;;;;;;;9.85;3.78;;;;;;;11.84;100.00;98285.81;5040700;28;20756;-62
2023/10/06 08:25:17;;;;;;;8.73;3.70;;;;;;;11.93;100.00;98297.16;5034808;28;20059;-62
2023/10/06 08:27:45;;;;;;;12.35;3.60;;;;;;;12.04;100.00;98287.34;5028736;28;20033;-62
2023/10/06 08:30:17;;;;;;;9.35;3.53;;;;;;;12.22;99.51;98291.81;5028548;28;20270;-64
2023/10/06 08:32:47;;;;;;;;;;;;;;;12.47;98.70;98295.28;5037153;28;20038;-66
2023/10/06 08:35:14;;;;;;;8.10;2.90;;;;;;;12.60;97.20;98297.72;5040267;28;19927;-65
2023/10/06 08:37:45;;;;;;;9.73;3.35;;;;;;;12.64;97.48;98305.38;5038385;28;20045;-64
2023/10/06 08:40:16;;;;;;;8.80;3.10;;;;;;;12.71;97.51;98308.75;5042110;28;20596;-65
2023/10/06 08:42:52;;;;;;;8.05;3.15;;;;;;;12.77;96.08;98299.66;5035140;28;20509;-65
2023/10/06 08:45:24;;;;;;;14.32;3.10;;;;;;;12.91;95.57;98296.63;5045298;28;20052;-64
2023/10/06 08:47:59;;;;;;;11.48;3.75;;;;;;;13.05;92.28;98297.97;5037401;28;20042;-65
2023/10/06 08:50:32;;;;;;;10.05;3.78;;;;;;;13.17;88.53;98297.91;5048292;28;20123;-65
2023/10/06 08:53:01;;;;;;;11.02;3.90;;;;;;;13.33;89.71;98300.88;5047178;28;20522;-65
2023/10/06 08:55:28;;;;;;;16.45;4.32;;;;;;;13.52;87.38;98302.31;5037331;28;20033;-65
2023/10/06 08:57:58;;;;;;;9.65;3.78;;;;;;;13.55;87.06;98305.59;5041822;28;20247;-65
2023/10/06 09:00:31;;;;;;;10.73;4.55;;;;;;;13.58;86.62;98310.53;5045468;28;20042;-64
2023/10/06 09:03:07;;;;;;;11.48;4.30;;;;;;;13.60;86.28;98317.38;5040954;28;20598;-66
2023/10/06 09:05:39;;;;;;;8.93;3.78;;;;;;;13.61;85.31;98308.16;5032442;28;20079;-65
2023/10/06 09:08:11;;;;;;;10.20;3.92;;;;;;;13.68;86.48;98302.56;5044601;28;20045;-63
2023/10/06 09:10:43;;;;;;;9.20;3.90;;;;;;;13.91;86.48;98297.97;5040525;28;20662;-66
2023/10/06 09:13:11;;;;;;;10.82;3.33;;;;;;;13.99;86.50;98302.16;5029547;28;20069;-64
2023/10/06 09:15:43;;;;;;;20.48;3.92;;;;;;;14.03;85.16;98306.00;5043820;28;20044;-66
2023/10/06 09:18:21;;;;;;;8.18;3.13;;;;;;;14.10;84.46;98303.09;5036211;28;20041;-66
2023/10/06 09:20:49;;;;;;;7.75;3.22;;;;;;;14.14;84.04;98305.09;5039464;28;20049;-65
2023/10/06 09:23:36;;;;;;;8.10;4.13;;;;;;;14.21;89.43;98293.16;5036055;28;20040;-66
2023/10/06 09:26:06;;;;;;;11.68;4.88;;;;;;;14.24;90.21;98287.22;5036943;28;20374;-65
2023/10/06 09:28:34;;;;;;;9.07;4.35;;;;;;;14.26;88.46;98283.16;5043786;28;20062;-65
2023/10/06 09:31:02;;;;;;;9.35;4.75;;;;;;;14.24;88.57;98289.94;5027939;28;20130;-65
2023/10/06 09:33:37;;;;;;;10.57;4.95;;;;;;;14.22;88.88;98278.50;5039839;28;20040;-64
2023/10/06 09:36:21;;;;;;;15.80;5.20;;;;;;;14.23;88.57;98271.97;5036983;28;20107;-65
2023/10/06 09:39:13;;;;;;;11.52;5.22;;;;;;;14.35;87.27;98271.81;5040456;28;20037;-65
2023/10/06 09:41:41;;;;;;;9.07;4.25;;;;;;;14.35;86.13;98272.66;5039742;28;20524;-64
2023/10/06 09:44:09;;;;;;;10.68;4.60;;;;;;;14.40;85.33;98266.41;5043796;28;20040;-65
2023/10/06 09:46:41;;;;;;;9.98;4.60;;;;;;;14.48;85.40;98268.69;5034727;28;20075;-65
2023/10/06 09:49:12;;;;;;;8.63;4.30;;;;;;;14.56;84.61;98267.44;5041089;28;20570;-64
2023/10/06 09:51:41;;;;;;;11.38;4.38;;;;;;;14.61;84.00;98270.22;5036679;28;20068;-65
2023/10/06 09:54:10;;;;;;;12.85;4.00;;;;;;;14.64;83.83;98268.88;5038616;28;20041;-66
2023/10/06 09:56:40;;;;;;;12.50;4.85;;;;;;;14.73;83.01;98263.75;5039770;28;20044;-64
2023/10/06 09:59:13;;;;;;;11.18;3.65;;;;;;;14.88;82.75;98266.69;5030607;28;20045;-66
2023/10/06 10:01:42;;;;;;;16.63;4.10;;;;;;;14.93;80.90;98266.72;5040382;28;20037;-65
2023/10/06 10:04:12;;;;;;;7.88;3.60;;;;;;;15.05;80.98;98265.75;5031417;28;20127;-66
2023/10/06 10:06:46;;;;;;;7.43;3.28;;;;;;;15.11;81.23;98258.44;5036533;28;20040;-66
2023/10/06 10:09:16;;;;;;;9.35;3.55;;;;;;;15.20;81.11;98260.44;5045343;28;20499;-66
2023/10/06 10:11:52;;;;;;;8.32;3.88;;;;;;;15.29;80.01;98266.22;5024745;28;20053;-65
2023/10/06 10:14:34;;;;;;;8.98;3.13;;;;;;;15.37;79.62;98264.91;5031147;28;20052;-65
2023/10/06 10:17:43;;;;;;;10.88;3.80;;;;;;;15.53;78.42;98256.81;5040877;28;20155;-66
2023/10/06 10:20:12;;;;;;;8.55;3.30;;;;;;;15.59;77.41;98253.06;5044865;28;20059;-65
2023/10/06 10:22:41;;;;;;;8.23;3.13;;;;;;;15.62;76.57;98260.72;5040400;28;20691;-65
2023/10/06 10:25:09;;;;;;;9.90;3.00;;;;;;;15.67;76.70;98255.28;5035751;28;20052;-66
2023/10/06 10:27:39;;;;;;;11.20;3.33;;;;;;;15.63;75.18;98254.19;5033583;28;20038;-65
2023/10/06 10:30:12;;;;;;;6.45;3.00;;;;;;;15.53;76.40;98249.47;5036383;28;20063;-65
2023/10/06 10:32:42;;;;;;;7.18;2.95;;;;;;;15.62;75.80;98244.31;5031521;28;20524;-65
2023/10/06 10:35:13;;;;;;;9.00;3.72;;;;;;;15.68;75.94;98243.28;5033287;28;20055;-64
2023/10/06 10:38:01;;;;;;;9.00;3.70;;;;;;;15.87;74.75;98240.09;5032610;28;20045;-64
2023/10/06 10:40:46;;;;;;;8.27;3.22;;;;;;;15.91;74.14;98233.03;5037943;28;20571;-65
2023/10/06 10:43:14;;;;;;;7.03;3.08;;;;;;;15.98;74.37;98233.63;5037734;28;20052;-66
2023/10/06 10:45:45;;;;;;;7.32;3.40;;;;;;;16.07;74.67;98224.94;5036983;28;20652;-64
2023/10/06 10:48:17;;;;;;;8.90;3.90;;;;;;;16.12;77.48;98225.78;5032985;28;20052;-65
2023/10/06 10:50:52;;;;;;;10.23;4.40;;;;;;;16.17;78.13;98229.59;5027030;28;20095;-65
2023/10/06 10:53:22;;;;;;;9.85;4.65;;;;;;;16.23;78.61;98225.81;5035569;28;20083;-65
2023/10/06 10:55:50;;;;;;;10.43;4.40;;;;;;;16.28;78.77;98225.00;5023696;28;20061;-63
2023/10/06 10:58:55;;;;;;;9.57;4.15;;;;;;;16.33;78.33;98217.63;5028871;28;20139;-64
2023/10/06 11:01:23;;;;;;;8.65;3.83;;;;;;;16.29;80.01;98207.53;5034426;28;20060;-65
2023/10/06 11:04:18;;;;;;;10.70;3.95;;;;;;;16.30;79.60;98207.25;5032780;28;20075;-63
2023/10/06 11:06:49;;;;;;;10.27;4.05;;;;;;;16.29;79.63;98210.25;5038193;28;20048;-65
2023/10/06 11:09:40;;;;;;;10.10;3.95;;;;;;;16.34;79.93;98202.06;5043385;28;20051;-65
2023/10/06 11:12:25;;;;;;;9.50;3.97;;;;;;;16.48;78.70;98199.63;5032408;28;20049;-65
2023/10/06 11:15:14;;;;;;;9.60;3.92;;;;;;;16.59;78.96;98195.00;5031663;28;20045;-64
2023/10/06 11:17:44;;;;;;;9.75;3.63;;;;;;;16.74;78.06;98195.00;5038112;28;20074;-65
2023/10/06 11:20:45;;;;;;;10.40;4.07;;;;;;;16.74;76.88;98192.28;5040278;28;20753;-63
2023/10/06 11:23:04;;;;;;;10.95;3.50;;;;;;;16.84;77.14;98191.47;5030207;28;20081;-65
2023/10/06 11:25:35;;;;;;;12.90;4.47;;;;;;;16.96;77.52;98201.31;5029614;28;20063;-64
2023/10/06 11:28:04;;;;;;;12.27;4.47;;;;;;;16.91;75.54;98193.91;5035948;28;20104;-64
2023/10/06 11:30:35;;;;;;;12.35;4.18;;;;;;;16.92;75.62;98190.13;5031585;28;20044;-65
2023/10/06 11:33:09;;;;;;;8.70;3.60;;;;;;;16.94;76.69;98187.09;5032361;28;20052;-65
2023/10/06 11:35:38;;;;;;;12.85;4.53;;;;;;;17.01;75.98;98196.69;5026699;28;20040;-64
2023/10/06 11:38:10;;;;;;;15.02;4.38;;;;;;;17.05;76.45;98187.94;5039137;28;20052;-64
2023/10/06 11:40:38;;;;;;;13.95;4.78;;;;;;;17.00;76.41;98191.47;5035936;28;20047;-64
2023/10/06 11:43:12;;;;;;;11.43;4.88;;;;;;;16.98;76.72;98185.44;5040753;28;20044;-65
2023/10/06 11:45:41;;;;;;;12.45;4.80;;;;;;;16.95;75.32;98188.75;5031187;28;20042;-65
2023/10/06 11:48:33;;;;;;;12.75;5.15;;;;;;;16.96;76.54;98182.19;5028030;28;20040;-65
2023/10/06 11:51:02;;;;;;;14.32;5.18;;;;;;;17.02;75.08;98181.91;5041691;28;20500;-64
2023/10/06 11:53:29;;;;;;;11.18;4.85;;;;;;;17.08;75.19;98187.38;5033633;28;20049;-65
2023/10/06 11:56:09;;;;;;;9.85;4.45;;;;;;;17.17;74.38;98193.94;5033594;28;20049;-65
2023/10/06 11:58:39;;;;;;;8.93;4.38;;;;;;;17.15;74.64;98188.75;5041736;28;20041;-64